sensor_id;sensor_type;location;lat;lon;timestamp;P1;durP1;ratioP1;P2;durP2;ratioP2
2652;SDS011;1336;48.692;9.144;2024-02-23T06:00:05;1.30;;;0.80;;
2652;SDS011;1336;48.692;9.144;2024-02-23T06:00:58;0.90;;;0.73;;
2652;SDS011;1336;48.692;9.144;2024-02-23T06:01:49;1.20;;;0.80;;
2652;SDS011;1336;48.692;9.144;2024-02-23T06:02:42;1.70;;;0.93;;
2652;SDS011;1336;48.692;9.144;2024-02-23T06:03:34;1.38;;;0.70;;
2652;SDS011;1336;48.692;9.144;2024-02-23T06:04:25;2.03;;;0.87;;
2652;SDS011;1336;48.692;9.144;2024-02-23T06:05:17;1.63;;;0.80;;
2652;SDS011;1336;48.692;9.144;2024-02-23T06:06:09;1.50;;;1.20;;
2652;SDS011;1336;48.692;9.144;2024-02-23T06:07:00;1.90;;;0.90;;
2652;SDS011;1336;48.692;9.144;2024-02-23T06:07:51;2.30;;;1.00;;
2652;SDS011;1336;48.692;9.144;2024-02-23T06:08:42;1.83;;;0.85;;
2652;SDS011;1336;48.692;9.144;2024-02-23T06:09:33;1.13;;;0.63;;
2652;SDS011;1336;48.692;9.144;2024-02-23T06:10:25;1.35;;;0.85;;
2652;SDS011;1336;48.692;9.144;2024-02-23T06:11:16;1.25;;;0.73;;
2652;SDS011;1336;48.692;9.144;2024-02-23T06:12:07;1.87;;;0.77;;
2652;SDS011;1336;48.692;9.144;2024-02-23T06:12:59;1.55;;;0.63;;
2652;SDS011;1336;48.692;9.144;2024-02-23T06:13:50;2.03;;;1.00;;
2652;SDS011;1336;48.692;9.144;2024-02-23T06:14:42;1.10;;;1.00;;
2652;SDS011;1336;48.692;9.144;2024-02-23T06:15:34;1.40;;;0.90;;
2652;SDS011;1336;48.692;9.144;2024-02-23T06:16:24;2.70;;;1.00;;
2652;SDS011;1336;48.692;9.144;2024-02-23T06:17:16;1.63;;;0.90;;
2652;SDS011;1336;48.692;9.144;2024-02-23T06:18:08;1.30;;;1.15;;
2652;SDS011;1336;48.692;9.144;2024-02-23T06:18:58;2.50;;;1.00;;
2652;SDS011;1336;48.692;9.144;2024-02-23T06:19:50;3.05;;;0.80;;
2652;SDS011;1336;48.692;9.144;2024-02-23T06:20:43;1.23;;;0.60;;
2652;SDS011;1336;48.692;9.144;2024-02-23T06:21:33;2.40;;;0.90;;
2652;SDS011;1336;48.692;9.144;2024-02-23T06:22:26;6.10;;;0.90;;
2652;SDS011;1336;48.692;9.144;2024-02-23T06:23:17;2.90;;;1.00;;
2652;SDS011;1336;48.692;9.144;2024-02-23T06:24:08;1.13;;;0.80;;
2652;SDS011;1336;48.692;9.144;2024-02-23T06:25:00;1.08;;;0.68;;
2652;SDS011;1336;48.692;9.144;2024-02-23T06:25:52;2.72;;;0.95;;
2652;SDS011;1336;48.692;9.144;2024-02-23T06:26:44;2.28;;;0.70;;
2652;SDS011;1336;48.692;9.144;2024-02-23T06:27:35;1.75;;;0.70;;
2652;SDS011;1336;48.692;9.144;2024-02-23T06:28:26;2.90;;;0.70;;
2652;SDS011;1336;48.692;9.144;2024-02-23T06:29:18;1.25;;;0.73;;
2652;SDS011;1336;48.692;9.144;2024-02-23T06:30:09;1.75;;;1.08;;
2652;SDS011;1336;48.692;9.144;2024-02-23T06:31:02;2.67;;;0.90;;
2652;SDS011;1336;48.692;9.144;2024-02-23T06:31:53;1.55;;;0.60;;
2652;SDS011;1336;48.692;9.144;2024-02-23T06:32:45;2.10;;;0.80;;
2652;SDS011;1336;48.692;9.144;2024-02-23T06:33:36;2.03;;;1.10;;
2652;SDS011;1336;48.692;9.144;2024-02-23T06:34:27;1.20;;;0.70;;
2652;SDS011;1336;48.692;9.144;2024-02-23T06:35:18;1.60;;;0.75;;
2652;SDS011;1336;48.692;9.144;2024-02-23T06:36:09;4.60;;;1.30;;
2652;SDS011;1336;48.692;9.144;2024-02-23T06:37:01;2.17;;;0.82;;
2652;SDS011;1336;48.692;9.144;2024-02-23T06:37:53;3.13;;;0.80;;
2652;SDS011;1336;48.692;9.144;2024-02-23T06:38:44;1.65;;;0.70;;
2652;SDS011;1336;48.692;9.144;2024-02-23T06:39:35;2.03;;;0.77;;
2652;SDS011;1336;48.692;9.144;2024-02-23T06:40:27;2.20;;;0.80;;
2652;SDS011;1336;48.692;9.144;2024-02-23T06:41:18;1.90;;;0.93;;
2652;SDS011;1336;48.692;9.144;2024-02-23T06:42:08;2.30;;;0.70;;
2652;SDS011;1336;48.692;9.144;2024-02-23T06:42:59;3.45;;;1.08;;
2652;SDS011;1336;48.692;9.144;2024-02-23T06:43:51;1.58;;;1.30;;
2652;SDS011;1336;48.692;9.144;2024-02-23T06:44:42;3.53;;;0.90;;
2652;SDS011;1336;48.692;9.144;2024-02-23T06:45:33;2.67;;;1.13;;
2652;SDS011;1336;48.692;9.144;2024-02-23T06:46:26;2.08;;;0.90;;
2652;SDS011;1336;48.692;9.144;2024-02-23T06:47:17;4.20;;;0.88;;
2652;SDS011;1336;48.692;9.144;2024-02-23T06:48:08;2.27;;;1.00;;
2652;SDS011;1336;48.692;9.144;2024-02-23T06:48:59;2.23;;;0.93;;
2652;SDS011;1336;48.692;9.144;2024-02-23T06:49:50;1.10;;;0.85;;
2652;SDS011;1336;48.692;9.144;2024-02-23T06:50:41;1.93;;;1.00;;
2652;SDS011;1336;48.692;9.144;2024-02-23T06:51:32;3.67;;;1.17;;
2652;SDS011;1336;48.692;9.144;2024-02-23T06:52:24;3.85;;;0.90;;
2652;SDS011;1336;48.692;9.144;2024-02-23T06:53:16;1.50;;;0.77;;
2652;SDS011;1336;48.692;9.144;2024-02-23T06:54:06;3.87;;;1.17;;
2652;SDS011;1336;48.692;9.144;2024-02-23T06:54:59;1.83;;;0.98;;
2652;SDS011;1336;48.692;9.144;2024-02-23T06:55:49;2.30;;;1.40;;
2652;SDS011;1336;48.692;9.144;2024-02-23T06:56:41;2.40;;;1.10;;
2652;SDS011;1336;48.692;9.144;2024-02-23T06:57:32;1.30;;;0.90;;
2652;SDS011;1336;48.692;9.144;2024-02-23T06:58:23;1.70;;;1.00;;
2652;SDS011;1336;48.692;9.144;2024-02-23T06:59:14;2.80;;;1.30;;
2652;SDS011;1336;48.692;9.144;2024-02-23T07:00:05;3.13;;;0.97;;
2652;SDS011;1336;48.692;9.144;2024-02-23T07:00:57;2.38;;;1.40;;
2652;SDS011;1336;48.692;9.144;2024-02-23T07:01:51;1.60;;;1.10;;
2652;SDS011;1336;48.692;9.144;2024-02-23T07:02:42;1.00;;;0.70;;
2652;SDS011;1336;48.692;9.144;2024-02-23T07:03:34;3.10;;;1.27;;
2652;SDS011;1336;48.692;9.144;2024-02-23T07:04:25;1.88;;;0.80;;
2652;SDS011;1336;48.692;9.144;2024-02-23T07:05:17;5.28;;;1.45;;
2652;SDS011;1336;48.692;9.144;2024-02-23T07:06:08;3.22;;;1.10;;
2652;SDS011;1336;48.692;9.144;2024-02-23T07:07:00;3.25;;;1.20;;
2652;SDS011;1336;48.692;9.144;2024-02-23T07:07:56;2.50;;;1.50;;
2652;SDS011;1336;48.692;9.144;2024-02-23T07:08:48;2.65;;;1.17;;
2652;SDS011;1336;48.692;9.144;2024-02-23T07:09:39;1.93;;;1.20;;
2652;SDS011;1336;48.692;9.144;2024-02-23T07:10:30;2.70;;;1.08;;
2652;SDS011;1336;48.692;9.144;2024-02-23T07:11:21;2.40;;;0.90;;
2652;SDS011;1336;48.692;9.144;2024-02-23T07:12:12;1.43;;;1.20;;
2652;SDS011;1336;48.692;9.144;2024-02-23T07:13:04;3.40;;;1.08;;
2652;SDS011;1336;48.692;9.144;2024-02-23T07:13:55;2.50;;;1.10;;
2652;SDS011;1336;48.692;9.144;2024-02-23T07:14:46;2.28;;;1.20;;
2652;SDS011;1336;48.692;9.144;2024-02-23T07:15:37;2.63;;;1.10;;
2652;SDS011;1336;48.692;9.144;2024-02-23T07:16:28;2.50;;;1.87;;
2652;SDS011;1336;48.692;9.144;2024-02-23T07:17:21;1.98;;;1.00;;
2652;SDS011;1336;48.692;9.144;2024-02-23T07:18:12;1.10;;;0.90;;
2652;SDS011;1336;48.692;9.144;2024-02-23T07:19:05;1.35;;;1.00;;
2652;SDS011;1336;48.692;9.144;2024-02-23T07:19:55;2.90;;;1.00;;
2652;SDS011;1336;48.692;9.144;2024-02-23T07:20:54;1.70;;;0.82;;
2652;SDS011;1336;48.692;9.144;2024-02-23T07:21:45;3.10;;;0.90;;
2652;SDS011;1336;48.692;9.144;2024-02-23T07:22:37;1.50;;;1.15;;
2652;SDS011;1336;48.692;9.144;2024-02-23T07:23:27;2.20;;;0.90;;
2652;SDS011;1336;48.692;9.144;2024-02-23T07:24:19;1.00;;;0.80;;
2652;SDS011;1336;48.692;9.144;2024-02-23T07:25:10;2.10;;;1.40;;
2652;SDS011;1336;48.692;9.144;2024-02-23T07:26:01;2.43;;;1.40;;
2652;SDS011;1336;48.692;9.144;2024-02-23T07:26:52;1.35;;;0.80;;
2652;SDS011;1336;48.692;9.144;2024-02-23T07:27:43;2.67;;;0.90;;
2652;SDS011;1336;48.692;9.144;2024-02-23T07:28:35;3.33;;;1.02;;
2652;SDS011;1336;48.692;9.144;2024-02-23T07:29:26;1.20;;;0.90;;
2652;SDS011;1336;48.692;9.144;2024-02-23T07:30:18;1.05;;;0.95;;
2652;SDS011;1336;48.692;9.144;2024-02-23T07:31:09;1.85;;;1.40;;
2652;SDS011;1336;48.692;9.144;2024-02-23T07:32:01;2.58;;;0.90;;
2652;SDS011;1336;48.692;9.144;2024-02-23T07:32:54;2.20;;;1.10;;
2652;SDS011;1336;48.692;9.144;2024-02-23T07:33:45;4.30;;;1.40;;
2652;SDS011;1336;48.692;9.144;2024-02-23T07:34:35;2.03;;;1.00;;
2652;SDS011;1336;48.692;9.144;2024-02-23T07:35:27;1.98;;;1.00;;
2652;SDS011;1336;48.692;9.144;2024-02-23T07:36:18;2.47;;;0.80;;
2652;SDS011;1336;48.692;9.144;2024-02-23T07:37:09;1.77;;;0.97;;
2652;SDS011;1336;48.692;9.144;2024-02-23T07:38:00;1.58;;;1.02;;
2652;SDS011;1336;48.692;9.144;2024-02-23T07:38:51;2.73;;;1.10;;
2652;SDS011;1336;48.692;9.144;2024-02-23T07:39:43;2.42;;;1.20;;
2652;SDS011;1336;48.692;9.144;2024-02-23T07:40:33;2.40;;;0.90;;
2652;SDS011;1336;48.692;9.144;2024-02-23T07:41:24;1.00;;;0.70;;
2652;SDS011;1336;48.692;9.144;2024-02-23T07:42:16;1.73;;;0.90;;
2652;SDS011;1336;48.692;9.144;2024-02-23T07:43:08;2.08;;;1.10;;
2652;SDS011;1336;48.692;9.144;2024-02-23T07:44:00;1.75;;;0.88;;
2652;SDS011;1336;48.692;9.144;2024-02-23T07:44:52;2.20;;;0.90;;
2652;SDS011;1336;48.692;9.144;2024-02-23T07:45:43;2.90;;;0.97;;
2652;SDS011;1336;48.692;9.144;2024-02-23T07:46:34;2.00;;;0.90;;
2652;SDS011;1336;48.692;9.144;2024-02-23T07:47:25;2.35;;;1.02;;
2652;SDS011;1336;48.692;9.144;2024-02-23T07:48:18;2.05;;;1.08;;
2652;SDS011;1336;48.692;9.144;2024-02-23T07:49:10;3.72;;;2.08;;
2652;SDS011;1336;48.692;9.144;2024-02-23T07:50:00;1.80;;;1.13;;
2652;SDS011;1336;48.692;9.144;2024-02-23T07:50:51;2.77;;;1.00;;
2652;SDS011;1336;48.692;9.144;2024-02-23T07:51:46;3.33;;;1.08;;
2652;SDS011;1336;48.692;9.144;2024-02-23T07:52:36;1.90;;;0.83;;
2652;SDS011;1336;48.692;9.144;2024-02-23T07:53:29;3.50;;;1.50;;
2652;SDS011;1336;48.692;9.144;2024-02-23T07:54:21;2.40;;;0.80;;
2652;SDS011;1336;48.692;9.144;2024-02-23T07:55:12;1.30;;;0.70;;
2652;SDS011;1336;48.692;9.144;2024-02-23T07:56:04;2.22;;;1.20;;
2652;SDS011;1336;48.692;9.144;2024-02-23T07:56:57;2.78;;;0.88;;
2652;SDS011;1336;48.692;9.144;2024-02-23T07:57:48;2.20;;;0.90;;
2652;SDS011;1336;48.692;9.144;2024-02-23T07:58:39;2.45;;;0.90;;
2652;SDS011;1336;48.692;9.144;2024-02-23T07:59:30;1.40;;;0.90;;
2652;SDS011;1336;48.692;9.144;2024-02-23T08:00:23;1.85;;;1.20;;
2652;SDS011;1336;48.692;9.144;2024-02-23T08:01:14;2.33;;;0.93;;
2652;SDS011;1336;48.692;9.144;2024-02-23T08:02:05;2.47;;;1.30;;
2652;SDS011;1336;48.692;9.144;2024-02-23T08:02:56;2.80;;;1.40;;
2652;SDS011;1336;48.692;9.144;2024-02-23T08:03:48;2.70;;;1.20;;
2652;SDS011;1336;48.692;9.144;2024-02-23T08:04:40;3.50;;;1.30;;
2652;SDS011;1336;48.692;9.144;2024-02-23T08:05:32;1.85;;;1.30;;
2652;SDS011;1336;48.692;9.144;2024-02-23T08:06:24;2.58;;;1.40;;
2652;SDS011;1336;48.692;9.144;2024-02-23T08:07:16;2.97;;;1.38;;
2652;SDS011;1336;48.692;9.144;2024-02-23T08:08:06;1.70;;;1.07;;
2652;SDS011;1336;48.692;9.144;2024-02-23T08:08:58;3.33;;;1.17;;
2652;SDS011;1336;48.692;9.144;2024-02-23T08:09:49;2.87;;;1.00;;
2652;SDS011;1336;48.692;9.144;2024-02-23T08:10:40;1.00;;;0.88;;
2652;SDS011;1336;48.692;9.144;2024-02-23T08:11:31;2.20;;;0.83;;
2652;SDS011;1336;48.692;9.144;2024-02-23T08:12:22;6.47;;;1.73;;
2652;SDS011;1336;48.692;9.144;2024-02-23T08:13:14;2.90;;;1.30;;
2652;SDS011;1336;48.692;9.144;2024-02-23T08:14:05;3.38;;;1.52;;
2652;SDS011;1336;48.692;9.144;2024-02-23T08:14:56;3.75;;;1.25;;
2652;SDS011;1336;48.692;9.144;2024-02-23T08:15:48;2.17;;;1.00;;
2652;SDS011;1336;48.692;9.144;2024-02-23T08:16:38;2.97;;;1.07;;
2652;SDS011;1336;48.692;9.144;2024-02-23T08:17:29;6.60;;;4.47;;
2652;SDS011;1336;48.692;9.144;2024-02-23T08:18:21;14.00;;;9.73;;
2652;SDS011;1336;48.692;9.144;2024-02-23T08:19:13;10.07;;;5.32;;
2652;SDS011;1336;48.692;9.144;2024-02-23T08:20:05;9.15;;;6.63;;
2652;SDS011;1336;48.692;9.144;2024-02-23T08:20:58;6.00;;;3.95;;
2652;SDS011;1336;48.692;9.144;2024-02-23T08:21:48;3.10;;;1.90;;
2652;SDS011;1336;48.692;9.144;2024-02-23T08:22:39;4.13;;;1.40;;
2652;SDS011;1336;48.692;9.144;2024-02-23T08:23:31;1.90;;;1.15;;
2652;SDS011;1336;48.692;9.144;2024-02-23T08:24:22;2.60;;;1.33;;
2652;SDS011;1336;48.692;9.144;2024-02-23T08:25:12;2.75;;;1.00;;
2652;SDS011;1336;48.692;9.144;2024-02-23T08:26:05;2.50;;;1.10;;
2652;SDS011;1336;48.692;9.144;2024-02-23T08:26:56;2.10;;;1.70;;
2652;SDS011;1336;48.692;9.144;2024-02-23T08:27:47;2.27;;;0.80;;
2652;SDS011;1336;48.692;9.144;2024-02-23T08:28:39;2.55;;;1.10;;
2652;SDS011;1336;48.692;9.144;2024-02-23T08:29:29;1.63;;;1.10;;
2652;SDS011;1336;48.692;9.144;2024-02-23T08:30:20;2.37;;;1.33;;
2652;SDS011;1336;48.692;9.144;2024-02-23T08:31:12;3.88;;;1.00;;
2652;SDS011;1336;48.692;9.144;2024-02-23T08:32:03;2.40;;;1.00;;
2652;SDS011;1336;48.692;9.144;2024-02-23T08:32:54;1.40;;;0.80;;
2652;SDS011;1336;48.692;9.144;2024-02-23T08:33:45;2.80;;;0.90;;
2652;SDS011;1336;48.692;9.144;2024-02-23T08:34:38;2.97;;;1.00;;
2652;SDS011;1336;48.692;9.144;2024-02-23T08:35:29;3.08;;;0.90;;
2652;SDS011;1336;48.692;9.144;2024-02-23T08:36:22;1.92;;;0.90;;
2652;SDS011;1336;48.692;9.144;2024-02-23T08:37:13;5.23;;;1.30;;
2652;SDS011;1336;48.692;9.144;2024-02-23T08:38:04;5.40;;;1.00;;
2652;SDS011;1336;48.692;9.144;2024-02-23T08:38:55;2.78;;;1.23;;
2652;SDS011;1336;48.692;9.144;2024-02-23T08:39:46;5.53;;;1.50;;
2652;SDS011;1336;48.692;9.144;2024-02-23T08:40:37;2.25;;;1.30;;
2652;SDS011;1336;48.692;9.144;2024-02-23T08:41:29;2.75;;;0.80;;
2652;SDS011;1336;48.692;9.144;2024-02-23T08:42:20;2.20;;;0.90;;
2652;SDS011;1336;48.692;9.144;2024-02-23T08:43:11;4.03;;;2.90;;
2652;SDS011;1336;48.692;9.144;2024-02-23T08:44:03;2.85;;;1.70;;
2652;SDS011;1336;48.692;9.144;2024-02-23T08:44:54;2.75;;;1.30;;
2652;SDS011;1336;48.692;9.144;2024-02-23T08:45:45;5.53;;;1.27;;
2652;SDS011;1336;48.692;9.144;2024-02-23T08:46:37;3.22;;;1.58;;
2652;SDS011;1336;48.692;9.144;2024-02-23T08:47:29;2.95;;;1.30;;
2652;SDS011;1336;48.692;9.144;2024-02-23T08:48:22;4.15;;;1.45;;
2652;SDS011;1336;48.692;9.144;2024-02-23T08:49:14;2.00;;;1.10;;
2652;SDS011;1336;48.692;9.144;2024-02-23T08:50:06;5.23;;;1.73;;
2652;SDS011;1336;48.692;9.144;2024-02-23T08:50:58;2.17;;;1.00;;
2652;SDS011;1336;48.692;9.144;2024-02-23T08:51:49;2.05;;;1.10;;
2652;SDS011;1336;48.692;9.144;2024-02-23T08:52:40;5.33;;;1.50;;
2652;SDS011;1336;48.692;9.144;2024-02-23T08:53:31;2.47;;;1.17;;
2652;SDS011;1336;48.692;9.144;2024-02-23T08:54:23;3.55;;;1.27;;
2652;SDS011;1336;48.692;9.144;2024-02-23T08:55:13;5.60;;;1.47;;
2652;SDS011;1336;48.692;9.144;2024-02-23T08:56:06;3.08;;;1.00;;
2652;SDS011;1336;48.692;9.144;2024-02-23T08:56:57;2.13;;;0.90;;
2652;SDS011;1336;48.692;9.144;2024-02-23T08:57:49;4.63;;;1.30;;
2652;SDS011;1336;48.692;9.144;2024-02-23T08:58:40;2.50;;;0.83;;
2652;SDS011;1336;48.692;9.144;2024-02-23T08:59:31;4.28;;;1.25;;
2652;SDS011;1336;48.692;9.144;2024-02-23T09:00:23;3.53;;;1.20;;
2652;SDS011;1336;48.692;9.144;2024-02-23T09:01:14;2.15;;;1.45;;
2652;SDS011;1336;48.692;9.144;2024-02-23T09:02:05;2.50;;;0.90;;
2652;SDS011;1336;48.692;9.144;2024-02-23T09:02:57;1.98;;;1.00;;
2652;SDS011;1336;48.692;9.144;2024-02-23T09:03:47;3.20;;;0.93;;
2652;SDS011;1336;48.692;9.144;2024-02-23T09:04:38;4.83;;;1.20;;
2652;SDS011;1336;48.692;9.144;2024-02-23T09:05:31;2.80;;;1.20;;
2652;SDS011;1336;48.692;9.144;2024-02-23T09:06:22;2.35;;;0.90;;
2652;SDS011;1336;48.692;9.144;2024-02-23T09:07:13;3.10;;;1.13;;
2652;SDS011;1336;48.692;9.144;2024-02-23T09:08:05;2.08;;;1.20;;
2652;SDS011;1336;48.692;9.144;2024-02-23T09:08:56;2.60;;;1.13;;
2652;SDS011;1336;48.692;9.144;2024-02-23T09:09:48;5.22;;;1.60;;
2652;SDS011;1336;48.692;9.144;2024-02-23T09:10:39;1.80;;;0.90;;
2652;SDS011;1336;48.692;9.144;2024-02-23T09:11:29;1.83;;;1.07;;
2652;SDS011;1336;48.692;9.144;2024-02-23T09:12:21;2.22;;;1.10;;
2652;SDS011;1336;48.692;9.144;2024-02-23T09:13:12;2.50;;;0.90;;
2652;SDS011;1336;48.692;9.144;2024-02-23T09:14:05;1.80;;;1.00;;
2652;SDS011;1336;48.692;9.144;2024-02-23T09:14:56;2.57;;;1.00;;
2652;SDS011;1336;48.692;9.144;2024-02-23T09:15:47;4.30;;;1.13;;
2652;SDS011;1336;48.692;9.144;2024-02-23T09:16:38;1.60;;;0.93;;
2652;SDS011;1336;48.692;9.144;2024-02-23T09:17:30;3.35;;;1.20;;
2652;SDS011;1336;48.692;9.144;2024-02-23T09:18:21;13.90;;;12.40;;
2652;SDS011;1336;48.692;9.144;2024-02-23T09:19:11;22.20;;;19.83;;
2652;SDS011;1336;48.692;9.144;2024-02-23T09:20:03;12.57;;;11.02;;
2652;SDS011;1336;48.692;9.144;2024-02-23T09:20:56;8.43;;;5.00;;
2652;SDS011;1336;48.692;9.144;2024-02-23T09:21:48;4.13;;;3.10;;
2652;SDS011;1336;48.692;9.144;2024-02-23T09:22:38;6.10;;;3.30;;
2652;SDS011;1336;48.692;9.144;2024-02-23T09:23:29;3.70;;;2.60;;
2652;SDS011;1336;48.692;9.144;2024-02-23T09:24:21;10.00;;;4.20;;
2652;SDS011;1336;48.692;9.144;2024-02-23T09:25:12;3.57;;;2.00;;
2652;SDS011;1336;48.692;9.144;2024-02-23T09:26:08;3.92;;;2.00;;
2652;SDS011;1336;48.692;9.144;2024-02-23T09:26:59;2.55;;;1.50;;
2652;SDS011;1336;48.692;9.144;2024-02-23T09:27:51;3.40;;;1.27;;
2652;SDS011;1336;48.692;9.144;2024-02-23T09:28:42;2.17;;;1.23;;
2652;SDS011;1336;48.692;9.144;2024-02-23T09:29:35;2.60;;;1.27;;
2652;SDS011;1336;48.692;9.144;2024-02-23T09:30:26;4.57;;;1.33;;
2652;SDS011;1336;48.692;9.144;2024-02-23T09:31:17;1.90;;;1.10;;
2652;SDS011;1336;48.692;9.144;2024-02-23T09:32:09;5.10;;;1.55;;
2652;SDS011;1336;48.692;9.144;2024-02-23T09:33:01;2.03;;;1.08;;
2652;SDS011;1336;48.692;9.144;2024-02-23T09:33:52;2.63;;;1.50;;
2652;SDS011;1336;48.692;9.144;2024-02-23T09:34:43;2.37;;;0.90;;
2652;SDS011;1336;48.692;9.144;2024-02-23T09:35:34;2.30;;;1.10;;
2652;SDS011;1336;48.692;9.144;2024-02-23T09:36:26;4.07;;;1.13;;
2652;SDS011;1336;48.692;9.144;2024-02-23T09:37:20;1.98;;;1.30;;
2652;SDS011;1336;48.692;9.144;2024-02-23T09:38:11;2.80;;;1.13;;
2652;SDS011;1336;48.692;9.144;2024-02-23T09:39:01;3.22;;;1.13;;
2652;SDS011;1336;48.692;9.144;2024-02-23T09:39:54;5.13;;;1.30;;
2652;SDS011;1336;48.692;9.144;2024-02-23T09:40:45;4.20;;;1.20;;
2652;SDS011;1336;48.692;9.144;2024-02-23T09:41:36;5.03;;;1.35;;
2652;SDS011;1336;48.692;9.144;2024-02-23T09:42:30;2.75;;;0.90;;
2652;SDS011;1336;48.692;9.144;2024-02-23T09:43:22;2.13;;;0.90;;
2652;SDS011;1336;48.692;9.144;2024-02-23T09:44:18;3.55;;;1.10;;
2652;SDS011;1336;48.692;9.144;2024-02-23T09:45:11;2.40;;;1.10;;
2652;SDS011;1336;48.692;9.144;2024-02-23T09:46:03;2.28;;;0.80;;
2652;SDS011;1336;48.692;9.144;2024-02-23T09:46:54;2.92;;;1.38;;
2652;SDS011;1336;48.692;9.144;2024-02-23T09:47:46;2.30;;;1.23;;
2652;SDS011;1336;48.692;9.144;2024-02-23T09:48:38;5.70;;;1.27;;
2652;SDS011;1336;48.692;9.144;2024-02-23T09:49:30;1.95;;;1.10;;
2652;SDS011;1336;48.692;9.144;2024-02-23T09:50:22;3.22;;;1.20;;
2652;SDS011;1336;48.692;9.144;2024-02-23T09:51:14;3.95;;;1.20;;
2652;SDS011;1336;48.692;9.144;2024-02-23T09:52:09;3.92;;;1.10;;
2652;SDS011;1336;48.692;9.144;2024-02-23T09:53:00;4.22;;;1.63;;
2652;SDS011;1336;48.692;9.144;2024-02-23T09:53:54;3.22;;;0.90;;
2652;SDS011;1336;48.692;9.144;2024-02-23T09:54:47;3.95;;;1.33;;
2652;SDS011;1336;48.692;9.144;2024-02-23T09:55:38;4.83;;;1.20;;
2652;SDS011;1336;48.692;9.144;2024-02-23T09:56:29;2.47;;;1.00;;
2652;SDS011;1336;48.692;9.144;2024-02-23T09:57:21;8.05;;;1.20;;
2652;SDS011;1336;48.692;9.144;2024-02-23T09:58:13;2.85;;;1.20;;
2652;SDS011;1336;48.692;9.144;2024-02-23T09:59:07;2.47;;;1.02;;
2652;SDS011;1336;48.692;9.144;2024-02-23T09:59:57;2.90;;;1.10;;
2652;SDS011;1336;48.692;9.144;2024-02-23T10:00:48;3.20;;;1.20;;
2652;SDS011;1336;48.692;9.144;2024-02-23T10:01:41;3.20;;;1.00;;
2652;SDS011;1336;48.692;9.144;2024-02-23T10:02:32;3.40;;;1.27;;
2652;SDS011;1336;48.692;9.144;2024-02-23T10:03:23;1.52;;;0.80;;
2652;SDS011;1336;48.692;9.144;2024-02-23T10:04:16;3.92;;;1.40;;
2652;SDS011;1336;48.692;9.144;2024-02-23T10:05:08;5.70;;;1.05;;
2652;SDS011;1336;48.692;9.144;2024-02-23T10:06:02;3.53;;;1.67;;
2652;SDS011;1336;48.692;9.144;2024-02-23T10:06:54;3.65;;;1.15;;
2652;SDS011;1336;48.692;9.144;2024-02-23T10:07:47;3.33;;;1.60;;
2652;SDS011;1336;48.692;9.144;2024-02-23T10:08:38;2.35;;;1.05;;
2652;SDS011;1336;48.692;9.144;2024-02-23T10:09:29;3.77;;;1.13;;
2652;SDS011;1336;48.692;9.144;2024-02-23T10:10:24;2.88;;;1.05;;
2652;SDS011;1336;48.692;9.144;2024-02-23T10:11:20;4.47;;;1.40;;
2652;SDS011;1336;48.692;9.144;2024-02-23T10:12:11;2.00;;;1.15;;
2652;SDS011;1336;48.692;9.144;2024-02-23T10:13:04;4.30;;;1.40;;
2652;SDS011;1336;48.692;9.144;2024-02-23T10:13:54;3.53;;;1.20;;
2652;SDS011;1336;48.692;9.144;2024-02-23T10:14:45;3.72;;;1.17;;
2652;SDS011;1336;48.692;9.144;2024-02-23T10:15:37;3.80;;;1.38;;
2652;SDS011;1336;48.692;9.144;2024-02-23T10:16:28;2.50;;;0.90;;
2652;SDS011;1336;48.692;9.144;2024-02-23T10:17:20;2.78;;;1.10;;
2652;SDS011;1336;48.692;9.144;2024-02-23T10:18:11;4.18;;;1.48;;
2652;SDS011;1336;48.692;9.144;2024-02-23T10:19:01;3.15;;;1.17;;
2652;SDS011;1336;48.692;9.144;2024-02-23T10:19:53;6.75;;;1.65;;
2652;SDS011;1336;48.692;9.144;2024-02-23T10:20:44;4.93;;;1.10;;
2652;SDS011;1336;48.692;9.144;2024-02-23T10:21:36;2.40;;;0.93;;
2652;SDS011;1336;48.692;9.144;2024-02-23T10:22:27;3.37;;;0.97;;
2652;SDS011;1336;48.692;9.144;2024-02-23T10:23:21;4.47;;;1.92;;
2652;SDS011;1336;48.692;9.144;2024-02-23T10:24:15;2.90;;;1.20;;
2652;SDS011;1336;48.692;9.144;2024-02-23T10:25:06;5.00;;;1.15;;
2652;SDS011;1336;48.692;9.144;2024-02-23T10:25:57;3.35;;;1.20;;
2652;SDS011;1336;48.692;9.144;2024-02-23T10:26:49;2.92;;;1.23;;
2652;SDS011;1336;48.692;9.144;2024-02-23T10:27:40;3.20;;;1.27;;
2652;SDS011;1336;48.692;9.144;2024-02-23T10:28:32;2.83;;;0.95;;
2652;SDS011;1336;48.692;9.144;2024-02-23T10:29:25;4.72;;;1.25;;
2652;SDS011;1336;48.692;9.144;2024-02-23T10:30:16;4.65;;;1.30;;
2652;SDS011;1336;48.692;9.144;2024-02-23T10:31:08;2.75;;;1.30;;
2652;SDS011;1336;48.692;9.144;2024-02-23T10:31:59;4.32;;;1.50;;
2652;SDS011;1336;48.692;9.144;2024-02-23T10:32:51;8.02;;;1.50;;
2652;SDS011;1336;48.692;9.144;2024-02-23T10:33:47;3.45;;;0.95;;
2652;SDS011;1336;48.692;9.144;2024-02-23T10:34:40;3.28;;;1.13;;
2652;SDS011;1336;48.692;9.144;2024-02-23T10:35:34;4.53;;;1.30;;
2652;SDS011;1336;48.692;9.144;2024-02-23T10:36:30;3.30;;;1.20;;
2652;SDS011;1336;48.692;9.144;2024-02-23T10:37:21;3.33;;;1.13;;
2652;SDS011;1336;48.692;9.144;2024-02-23T10:38:15;3.67;;;1.00;;
2652;SDS011;1336;48.692;9.144;2024-02-23T10:39:09;4.32;;;1.75;;
2652;SDS011;1336;48.692;9.144;2024-02-23T10:40:02;3.60;;;1.25;;
2652;SDS011;1336;48.692;9.144;2024-02-23T10:40:59;2.28;;;1.00;;
2652;SDS011;1336;48.692;9.144;2024-02-23T10:41:56;2.92;;;1.17;;
2652;SDS011;1336;48.692;9.144;2024-02-23T10:42:49;2.88;;;1.10;;
2652;SDS011;1336;48.692;9.144;2024-02-23T10:43:43;4.60;;;0.95;;
2652;SDS011;1336;48.692;9.144;2024-02-23T10:44:37;4.30;;;1.10;;
2652;SDS011;1336;48.692;9.144;2024-02-23T10:45:30;6.40;;;1.23;;
2652;SDS011;1336;48.692;9.144;2024-02-23T10:46:21;4.88;;;1.20;;
2652;SDS011;1336;48.692;9.144;2024-02-23T10:47:12;5.95;;;1.40;;
2652;SDS011;1336;48.692;9.144;2024-02-23T10:48:05;2.95;;;1.23;;
2652;SDS011;1336;48.692;9.144;2024-02-23T10:48:57;5.05;;;1.20;;
2652;SDS011;1336;48.692;9.144;2024-02-23T10:49:49;4.40;;;1.10;;
2652;SDS011;1336;48.692;9.144;2024-02-23T10:50:41;3.60;;;1.40;;
2652;SDS011;1336;48.692;9.144;2024-02-23T10:51:34;9.50;;;2.38;;
2652;SDS011;1336;48.692;9.144;2024-02-23T10:52:27;5.18;;;1.45;;
2652;SDS011;1336;48.692;9.144;2024-02-23T10:53:19;4.45;;;1.80;;
2652;SDS011;1336;48.692;9.144;2024-02-23T10:54:12;3.90;;;1.25;;
2652;SDS011;1336;48.692;9.144;2024-02-23T10:55:04;5.50;;;1.55;;
2652;SDS011;1336;48.692;9.144;2024-02-23T10:55:59;2.80;;;1.60;;
2652;SDS011;1336;48.692;9.144;2024-02-23T10:56:50;3.30;;;1.00;;
2652;SDS011;1336;48.692;9.144;2024-02-23T10:57:45;3.30;;;1.30;;
2652;SDS011;1336;48.692;9.144;2024-02-23T10:58:38;4.97;;;1.27;;
2652;SDS011;1336;48.692;9.144;2024-02-23T10:59:30;4.53;;;1.33;;
2652;SDS011;1336;48.692;9.144;2024-02-23T11:00:21;5.53;;;1.70;;
2652;SDS011;1336;48.692;9.144;2024-02-23T11:01:14;5.18;;;1.80;;
2652;SDS011;1336;48.692;9.144;2024-02-23T11:02:07;3.42;;;1.40;;
2652;SDS011;1336;48.692;9.144;2024-02-23T11:02:58;3.92;;;1.05;;
2652;SDS011;1336;48.692;9.144;2024-02-23T11:03:51;2.00;;;0.98;;
2652;SDS011;1336;48.692;9.144;2024-02-23T11:04:43;2.85;;;1.20;;
2652;SDS011;1336;48.692;9.144;2024-02-23T11:05:40;5.35;;;1.80;;
2652;SDS011;1336;48.692;9.144;2024-02-23T11:06:33;3.65;;;1.58;;
2652;SDS011;1336;48.692;9.144;2024-02-23T11:07:24;3.20;;;1.00;;
2652;SDS011;1336;48.692;9.144;2024-02-23T11:08:17;4.28;;;1.30;;
2652;SDS011;1336;48.692;9.144;2024-02-23T11:09:13;6.10;;;2.58;;
2652;SDS011;1336;48.692;9.144;2024-02-23T11:10:04;4.30;;;1.15;;
2652;SDS011;1336;48.692;9.144;2024-02-23T11:10:56;5.50;;;1.10;;
2652;SDS011;1336;48.692;9.144;2024-02-23T11:11:53;4.97;;;1.30;;
2652;SDS011;1336;48.692;9.144;2024-02-23T11:12:46;6.35;;;1.55;;
2652;SDS011;1336;48.692;9.144;2024-02-23T11:13:48;2.58;;;1.30;;
2652;SDS011;1336;48.692;9.144;2024-02-23T11:14:48;3.97;;;1.30;;
2652;SDS011;1336;48.692;9.144;2024-02-23T11:15:41;4.82;;;1.30;;
2652;SDS011;1336;48.692;9.144;2024-02-23T11:16:32;3.60;;;0.90;;
2652;SDS011;1336;48.692;9.144;2024-02-23T11:17:25;3.90;;;1.33;;
2652;SDS011;1336;48.692;9.144;2024-02-23T11:18:22;2.60;;;1.13;;
2652;SDS011;1336;48.692;9.144;2024-02-23T11:19:17;4.18;;;1.30;;
2652;SDS011;1336;48.692;9.144;2024-02-23T11:20:09;3.42;;;1.17;;
2652;SDS011;1336;48.692;9.144;2024-02-23T11:21:05;3.35;;;1.10;;
2652;SDS011;1336;48.692;9.144;2024-02-23T11:22:00;3.40;;;1.10;;